Galena, Missouri
Current Conditions -  °F | °C
As of 2:15 PM on Monday 26 Jan 2015 (Local Time) from KFWB Reporting Station
Clear Clear  
Wind Chill: 14°   Ceiling: Unl
Heat Index: 14°   Visibility: 10mi
Dew Point:   Wind: 13mph
Humidity: 38%   Direction: 250°WSW
Pressure: 29.94"   Gusts: NA
Location:  36.81°N, 93.47°W
Report Text: KFWB 262015Z AUTO 25011KT 10SM CLR 14/00 A2994 RMK AO2
Loading
Personal Weather Stations






























Interactive Weather Map New forecast layout! Learn more

10-Day Weather Forecast

Advertisements
Track Severe Weather on mobile